Time;durP1;ratioP1;P1;durP2;ratioP2;P2;SDS_P1;SDS_P2;PMS_P1;PMS_P2;Temp;Humidity;BMP_temperature;BMP_pressure;BME280_temperature;BME280_humidity;BME280_pressure;Samples;Min_cycle;Max_cycle;Signal;HPM_P1;HPM_P2
2022/03/10 00:01:26;;;;;;;10.73;6.32;;;;;;;;;;5022887;28;20135;-71
2022/03/10 00:03:52;;;;;;;8.35;5.78;;;;;;;;;;5022190;28;20060;-72
2022/03/10 00:06:17;;;;;;;11.15;6.05;;;;;;;;;;5022510;28;20092;-71
2022/03/10 00:08:43;;;;;;;8.57;6.13;;;;;;;;;;5022911;28;20037;-72
2022/03/10 00:11:08;;;;;;;9.82;6.25;;;;;;;;;;5022691;28;20045;-69
2022/03/10 00:13:34;;;;;;;10.20;5.70;;;;;;;;;;5022370;28;20041;-72
2022/03/10 00:15:59;;;;;;;11.43;6.18;;;;;;;;;;5022229;28;20148;-73
2022/03/10 00:18:25;;;;;;;13.07;6.03;;;;;;;;;;5022658;28;20025;-72
2022/03/10 00:20:51;;;;;;;11.95;6.50;;;;;;;;;;5022930;28;20143;-69
2022/03/10 00:23:17;;;;;;;9.93;6.78;;;;;;;;;;5022606;28;20119;-73
2022/03/10 00:25:42;;;;;;;8.95;6.05;;;;;;;;;;5021738;28;20501;-69
2022/03/10 00:28:08;;;;;;;9.77;5.68;;;;;;;;;;5021994;28;20824;-72
2022/03/10 00:30:33;;;;;;;8.85;5.70;;;;;;;;;;5022648;28;20033;-74
2022/03/10 00:32:59;;;;;;;12.32;6.03;;;;;;;;;;5021269;28;20033;-70
2022/03/10 00:35:25;;;;;;;11.57;6.00;;;;;;;;;;5022003;28;20045;-69
2022/03/10 00:37:52;;;;;;;13.02;6.50;;;;;;;;;;5022037;28;20037;-72
2022/03/10 00:40:19;;;;;;;11.52;6.00;;;;;;;;;;5022312;28;20544;-70
2022/03/10 00:42:45;;;;;;;12.18;6.32;;;;;;;;;;5022776;28;20037;-69
2022/03/10 00:45:11;;;;;;;12.80;6.78;;;;;;;;;;5022089;28;20039;-71
2022/03/10 00:47:37;;;;;;;13.85;7.25;;;;;;;;;;5021205;28;20525;-72
2022/03/10 00:50:04;;;;;;;8.90;6.25;;;;;;;;;;5021939;28;20068;-73
2022/03/10 00:52:30;;;;;;;12.80;7.10;;;;;;;;;;5022176;28;20033;-72
2022/03/10 00:54:56;;;;;;;10.73;7.07;;;;;;;;;;5021989;28;20040;-70
2022/03/10 00:57:22;;;;;;;12.90;6.60;;;;;;;;;;5021464;28;20029;-70
2022/03/10 00:59:47;;;;;;;10.85;7.03;;;;;;;;;;5021797;28;20063;-73
2022/03/10 01:02:13;;;;;;;10.05;6.43;;;;;;;;;;5021695;28;20037;-70
2022/03/10 01:04:39;;;;;;;9.55;6.63;;;;;;;;;;5021893;28;20041;-69
2022/03/10 01:07:04;;;;;;;13.35;7.20;;;;;;;;;;5021342;28;20064;-73
2022/03/10 01:09:29;;;;;;;10.75;6.50;;;;;;;;;;5020781;28;20041;-72
2022/03/10 01:11:55;;;;;;;11.95;6.47;;;;;;;;;;5021577;28;20033;-71
2022/03/10 01:14:20;;;;;;;9.27;6.50;;;;;;;;;;5021914;28;20053;-74
2022/03/10 01:16:46;;;;;;;12.63;6.65;;;;;;;;;;5021312;28;20046;-72
2022/03/10 01:19:11;;;;;;;11.98;6.55;;;;;;;;;;5020778;28;20473;-70
2022/03/10 01:21:37;;;;;;;9.95;6.25;;;;;;;;;;5021354;28;20064;-70
2022/03/10 01:24:02;;;;;;;13.43;7.47;;;;;;;;;;5021530;28;20115;-73
2022/03/10 01:26:28;;;;;;;13.15;7.40;;;;;;;;;;5021197;28;20041;-71
2022/03/10 01:28:53;;;;;;;11.93;7.20;;;;;;;;;;5021465;28;20122;-74
2022/03/10 01:31:19;;;;;;;14.02;7.63;;;;;;;;;;5020492;28;20043;-71
2022/03/10 01:33:44;;;;;;;13.68;7.38;;;;;;;;;;5021493;28;20120;-74
2022/03/10 01:36:09;;;;;;;13.38;8.00;;;;;;;;;;5021136;28;20033;-70
2022/03/10 01:38:39;;;;;;;12.57;7.63;;;;;;;;;;5021093;28;20029;-73
2022/03/10 01:41:09;;;;;;;11.43;6.70;;;;;;;;;;5021030;28;20076;-75
2022/03/10 01:43:57;;;;;;;11.20;6.30;;;;;;;;;;5020870;28;20115;-75
2022/03/10 01:46:24;;;;;;;12.40;6.75;;;;;;;;;;5020762;28;20120;-71
2022/03/10 01:48:49;;;;;;;14.35;7.47;;;;;;;;;;5021060;28;20037;-70
2022/03/10 01:51:15;;;;;;;9.43;6.35;;;;;;;;;;5020962;28;20029;-70
2022/03/10 01:53:41;;;;;;;13.35;7.55;;;;;;;;;;5020477;28;20037;-70
2022/03/10 01:56:07;;;;;;;12.52;6.78;;;;;;;;;;5020573;28;20079;-69
2022/03/10 01:58:33;;;;;;;12.55;7.20;;;;;;;;;;5020540;28;20668;-72
2022/03/10 02:01:00;;;;;;;10.82;6.50;;;;;;;;;;5020794;28;20038;-72
2022/03/10 02:03:25;;;;;;;11.57;7.13;;;;;;;;;;5020128;28;20048;-73
2022/03/10 02:05:51;;;;;;;11.23;6.57;;;;;;;;;;5016650;28;20037;-70
2022/03/10 02:11:01;;;;;;;13.57;7.22;;;;;;;;;;5020635;28;20473;-68
2022/03/10 02:13:26;;;;;;;9.75;6.20;;;;;;;;;;5020752;28;20033;-74
2022/03/10 02:18:36;;;;;;;13.73;6.47;;;;;;;;;;5020484;28;20481;-73
2022/03/10 02:21:01;;;;;;;8.38;5.32;;;;;;;;;;5020576;28;20494;-70
2022/03/10 02:23:27;;;;;;;8.93;5.88;;;;;;;;;;5020483;28;20041;-72
2022/03/10 02:25:52;;;;;;;10.20;5.47;;;;;;;;;;5019706;28;20068;-70
2022/03/10 02:28:18;;;;;;;8.35;5.60;;;;;;;;;;5020058;28;20087;-71
2022/03/10 02:30:44;;;;;;;8.85;4.97;;;;;;;;;;5020731;28;20030;-69
2022/03/10 02:33:09;;;;;;;9.70;5.28;;;;;;;;;;5020389;28;20041;-70
2022/03/10 02:35:35;;;;;;;7.97;4.82;;;;;;;;;;5020418;28;20029;-70
2022/03/10 02:38:01;;;;;;;7.95;4.65;;;;;;;;;;5018660;28;20556;-74
2022/03/10 02:40:28;;;;;;;8.05;4.95;;;;;;;;;;5020478;28;20087;-72
2022/03/10 02:42:53;;;;;;;7.07;4.47;;;;;;;;;;5020441;28;20041;-70
2022/03/10 02:45:19;;;;;;;12.07;5.13;;;;;;;;;;5020277;28;20026;-70
2022/03/10 02:47:44;;;;;;;8.07;4.72;;;;;;;;;;5019707;28;20076;-71
2022/03/10 02:50:10;;;;;;;10.30;5.18;;;;;;;;;;5020416;28;20374;-74
2022/03/10 02:52:39;;;;;;;6.22;4.18;;;;;;;;;;5020874;28;20060;-71
2022/03/10 02:55:06;;;;;;;9.13;4.82;;;;;;;;;;5020054;28;20099;-70
2022/03/10 02:57:32;;;;;;;10.50;4.90;;;;;;;;;;5020120;28;20033;-69
2022/03/10 02:59:59;;;;;;;10.63;5.28;;;;;;;;;;5019099;28;20500;-71
2022/03/10 03:02:25;;;;;;;7.55;4.72;;;;;;;;;;5019742;28;20040;-70
2022/03/10 03:04:51;;;;;;;7.88;4.60;;;;;;;;;;5020268;28;20041;-72
2022/03/10 03:07:17;;;;;;;9.90;5.40;;;;;;;;;;5020172;28;20038;-70
2022/03/10 03:09:42;;;;;;;8.25;5.40;;;;;;;;;;5020912;28;20029;-73
2022/03/10 03:12:07;;;;;;;6.72;4.50;;;;;;;;;;5023709;28;20048;-72
2022/03/10 03:14:33;;;;;;;10.82;5.18;;;;;;;;;;5023716;28;20167;-71
2022/03/10 03:16:59;;;;;;;11.15;4.93;;;;;;;;;;5023667;28;20067;-70
2022/03/10 03:19:25;;;;;;;8.52;4.85;;;;;;;;;;5023596;28;20052;-70
2022/03/10 03:21:51;;;;;;;8.52;5.05;;;;;;;;;;5023032;28;20033;-70
2022/03/10 03:24:17;;;;;;;8.13;5.18;;;;;;;;;;5023455;28;20033;-72
2022/03/10 03:26:42;;;;;;;8.57;5.07;;;;;;;;;;5025395;28;20056;-74
2022/03/10 03:29:08;;;;;;;9.73;4.82;;;;;;;;;;5023344;28;21191;-70
2022/03/10 03:31:33;;;;;;;8.70;4.78;;;;;;;;;;5023608;28;20064;-72
2022/03/10 03:33:59;;;;;;;8.32;4.90;;;;;;;;;;5023920;28;20044;-71
2022/03/10 03:36:25;;;;;;;9.55;5.47;;;;;;;;;;5023694;28;20069;-70
2022/03/10 03:38:50;;;;;;;7.75;5.20;;;;;;;;;;5023682;28;20120;-72
2022/03/10 03:41:16;;;;;;;9.63;5.15;;;;;;;;;;5022370;28;20489;-73
2022/03/10 03:43:41;;;;;;;7.75;4.93;;;;;;;;;;5022572;28;20470;-69
2022/03/10 03:46:07;;;;;;;7.55;4.88;;;;;;;;;;5021198;28;20033;-73
2022/03/10 03:48:33;;;;;;;7.35;4.75;;;;;;;;;;5020098;28;20037;-72
2022/03/10 03:50:58;;;;;;;7.20;4.25;;;;;;;;;;5021758;28;20033;-70
2022/03/10 03:53:24;;;;;;;7.78;5.20;;;;;;;;;;5021681;28;20490;-71
2022/03/10 03:55:50;;;;;;;10.30;4.72;;;;;;;;;;5022992;28;20052;-71
2022/03/10 03:58:15;;;;;;;8.55;5.15;;;;;;;;;;5022795;28;20037;-71
2022/03/10 04:00:41;;;;;;;8.82;4.88;;;;;;;;;;5023019;28;20033;-74
2022/03/10 04:03:09;;;;;;;7.10;4.82;;;;;;;;;;5022479;28;20678;-72
2022/03/10 04:05:34;;;;;;;7.40;5.10;;;;;;;;;;5020860;28;20161;-70
2022/03/10 04:08:00;;;;;;;6.38;4.43;;;;;;;;;;5021273;28;20168;-69
2022/03/10 04:10:25;;;;;;;9.18;5.40;;;;;;;;;;5022901;28;20041;-69
2022/03/10 04:12:50;;;;;;;7.22;4.47;;;;;;;;;;5022607;28;20040;-70
2022/03/10 04:15:16;;;;;;;6.22;3.72;;;;;;;;;;5019021;28;20034;-72
2022/03/10 04:17:45;;;;;;;8.82;4.93;;;;;;;;;;5022332;28;20029;-70
2022/03/10 04:20:13;;;;;;;7.97;5.03;;;;;;;;;;5021957;28;20091;-74
2022/03/10 04:22:39;;;;;;;8.73;5.32;;;;;;;;;;5022732;28;20056;-69
2022/03/10 04:25:07;;;;;;;9.27;5.55;;;;;;;;;;5022421;28;20029;-73
2022/03/10 04:27:32;;;;;;;10.38;5.13;;;;;;;;;;5022182;28;20033;-72
2022/03/10 04:29:57;;;;;;;6.32;4.22;;;;;;;;;;5022381;28;20559;-72
2022/03/10 04:32:23;;;;;;;9.05;5.13;;;;;;;;;;5022461;28;20041;-68
2022/03/10 04:34:49;;;;;;;7.05;4.95;;;;;;;;;;5022593;28;20083;-71
2022/03/10 04:37:14;;;;;;;14.38;5.60;;;;;;;;;;5021699;28;20065;-73
2022/03/10 04:39:40;;;;;;;13.50;5.43;;;;;;;;;;5022500;28;20044;-73
2022/03/10 04:42:05;;;;;;;12.70;5.88;;;;;;;;;;5022173;28;20041;-69
2022/03/10 04:44:31;;;;;;;7.90;5.22;;;;;;;;;;5022403;28;20040;-69
2022/03/10 04:46:56;;;;;;;11.18;5.50;;;;;;;;;;5021943;28;20099;-73
2022/03/10 04:49:22;;;;;;;16.40;5.13;;;;;;;;;;5021556;28;20108;-69
2022/03/10 04:51:47;;;;;;;9.88;5.18;;;;;;;;;;5022111;28;20087;-71
2022/03/10 04:54:13;;;;;;;9.32;5.55;;;;;;;;;;5021744;28;20455;-73
2022/03/10 04:56:38;;;;;;;8.15;5.05;;;;;;;;;;5021308;28;20956;-70
2022/03/10 04:59:04;;;;;;;10.82;5.65;;;;;;;;;;5020974;28;21039;-71
2022/03/10 05:01:30;;;;;;;8.57;5.60;;;;;;;;;;5021822;28;20043;-74
2022/03/10 05:03:55;;;;;;;9.90;5.63;;;;;;;;;;5020112;28;20522;-71
2022/03/10 05:06:22;;;;;;;8.57;5.55;;;;;;;;;;5003686;28;20122;-70
2022/03/10 05:08:47;;;;;;;10.57;5.40;;;;;;;;;;5021435;28;20048;-73
2022/03/10 05:11:13;;;;;;;10.75;5.65;;;;;;;;;;5021146;28;20037;-73
2022/03/10 05:13:38;;;;;;;14.48;6.05;;;;;;;;;;5021942;28;20044;-72
2022/03/10 05:16:04;;;;;;;9.73;5.22;;;;;;;;;;5021361;28;20378;-74
2022/03/10 05:18:30;;;;;;;7.70;5.57;;;;;;;;;;5021727;28;20475;-72
2022/03/10 05:20:55;;;;;;;11.90;5.45;;;;;;;;;;5020676;28;20191;-74
2022/03/10 05:23:20;;;;;;;11.65;5.68;;;;;;;;;;5021234;28;20018;-71
2022/03/10 05:25:46;;;;;;;12.95;4.88;;;;;;;;;;5021254;28;20431;-76
2022/03/10 05:28:15;;;;;;;11.07;6.15;;;;;;;;;;5021038;28;20049;-73
2022/03/10 05:30:42;;;;;;;12.18;5.80;;;;;;;;;;5020776;28;20075;-70
2022/03/10 05:33:09;;;;;;;16.02;5.88;;;;;;;;;;5016010;28;20122;-71
2022/03/10 05:35:35;;;;;;;10.57;5.57;;;;;;;;;;5020590;28;20351;-68
2022/03/10 05:38:01;;;;;;;8.50;5.32;;;;;;;;;;5020598;28;20033;-70
2022/03/10 05:40:26;;;;;;;10.82;5.97;;;;;;;;;;5020698;28;20116;-69
2022/03/10 05:42:53;;;;;;;7.40;5.35;;;;;;;;;;5020277;28;20111;-69
2022/03/10 05:45:20;;;;;;;10.80;5.80;;;;;;;;;;5020448;28;20029;-68
2022/03/10 05:47:47;;;;;;;9.40;5.90;;;;;;;;;;5020831;28;20063;-68
2022/03/10 05:50:12;;;;;;;9.65;5.50;;;;;;;;;;5020828;28;20124;-68
2022/03/10 05:52:38;;;;;;;10.77;5.57;;;;;;;;;;5020941;28;20108;-69
2022/03/10 05:55:05;;;;;;;10.90;5.82;;;;;;;;;;5019633;28;20037;-69
2022/03/10 05:57:30;;;;;;;11.32;5.38;;;;;;;;;;5020278;28;20041;-69
2022/03/10 05:59:56;;;;;;;10.05;5.40;;;;;;;;;;5020587;28;20041;-68
2022/03/10 06:02:21;;;;;;;11.27;5.70;;;;;;;;;;5019919;28;20039;-68
2022/03/10 06:04:47;;;;;;;8.70;5.43;;;;;;;;;;5019640;28;20118;-69
2022/03/10 06:07:12;;;;;;;13.85;5.90;;;;;;;;;;5019754;28;20033;-69
2022/03/10 06:09:38;;;;;;;13.30;6.00;;;;;;;;;;5019929;28;20025;-68
2022/03/10 06:12:04;;;;;;;9.05;5.53;;;;;;;;;;5020571;28;20494;-68
2022/03/10 06:14:29;;;;;;;12.75;6.35;;;;;;;;;;5020398;28;20414;-69
2022/03/10 06:16:54;;;;;;;10.70;5.63;;;;;;;;;;5017776;28;20031;-68
2022/03/10 06:19:20;;;;;;;16.52;7.38;;;;;;;;;;5019335;28;20041;-69
2022/03/10 06:21:46;;;;;;;12.55;5.97;;;;;;;;;;5019388;28;20033;-70
2022/03/10 06:24:12;;;;;;;11.65;6.15;;;;;;;;;;5019282;28;20403;-68
2022/03/10 06:26:38;;;;;;;10.68;6.05;;;;;;;;;;5018693;28;20033;-68
2022/03/10 06:29:04;;;;;;;10.25;6.57;;;;;;;;;;5019112;28;20037;-70
2022/03/10 06:31:30;;;;;;;14.35;6.57;;;;;;;;;;5019852;28;20099;-68
2022/03/10 06:33:57;;;;;;;9.55;6.07;;;;;;;;;;5019749;28;20037;-69
2022/03/10 06:36:23;;;;;;;10.05;5.60;;;;;;;;;;5020863;28;20470;-68
2022/03/10 06:38:48;;;;;;;8.15;5.93;;;;;;;;;;5020147;28;20045;-69
2022/03/10 06:41:13;;;;;;;12.63;6.90;;;;;;;;;;5021681;28;20045;-67
2022/03/10 06:43:39;;;;;;;11.07;6.65;;;;;;;;;;5024076;28;20036;-70
2022/03/10 06:46:04;;;;;;;11.70;5.68;;;;;;;;;;5024861;28;20130;-69
2022/03/10 06:48:29;;;;;;;9.80;6.00;;;;;;;;;;5023679;28;20091;-69
2022/03/10 06:50:55;;;;;;;12.40;6.35;;;;;;;;;;5024875;28;20029;-70
2022/03/10 06:53:20;;;;;;;11.73;6.57;;;;;;;;;;5023845;28;20033;-68
2022/03/10 06:55:46;;;;;;;11.23;6.47;;;;;;;;;;5023139;28;20076;-70
2022/03/10 06:58:11;;;;;;;15.50;6.85;;;;;;;;;;5023037;28;20072;-70
2022/03/10 07:00:37;;;;;;;12.07;6.43;;;;;;;;;;5022354;28;20030;-68
2022/03/10 07:03:03;;;;;;;10.25;6.35;;;;;;;;;;5022779;28;20034;-70
2022/03/10 07:05:29;;;;;;;12.52;6.53;;;;;;;;;;5021725;28;20553;-68
2022/03/10 07:07:54;;;;;;;10.20;5.47;;;;;;;;;;5023320;28;20025;-67
2022/03/10 07:10:20;;;;;;;10.18;6.28;;;;;;;;;;5023948;28;20486;-70
2022/03/10 07:12:45;;;;;;;9.23;6.32;;;;;;;;;;5024847;28;21125;-68
2022/03/10 07:15:12;;;;;;;9.38;6.28;;;;;;;;;;5024760;28;20121;-69
2022/03/10 07:17:38;;;;;;;11.35;7.03;;;;;;;;;;5024825;28;20029;-69
2022/03/10 07:20:05;;;;;;;11.10;6.88;;;;;;;;;;5024000;28;20037;-69
2022/03/10 07:22:30;;;;;;;10.80;5.95;;;;;;;;;;5023488;28;20029;-70
2022/03/10 07:24:55;;;;;;;8.20;5.93;;;;;;;;;;5026209;28;20040;-72
2022/03/10 07:27:21;;;;;;;9.90;6.47;;;;;;;;;;5024898;28;20466;-69
2022/03/10 07:29:47;;;;;;;10.20;6.40;;;;;;;;;;5024326;28;20036;-69
2022/03/10 07:32:12;;;;;;;10.80;6.18;;;;;;;;;;5023841;28;20474;-68
2022/03/10 07:34:37;;;;;;;10.13;6.38;;;;;;;;;;5024684;28;20120;-66
2022/03/10 07:37:03;;;;;;;10.00;6.55;;;;;;;;;;5023692;28;20034;-70
2022/03/10 07:39:29;;;;;;;9.05;6.50;;;;;;;;;;5022299;28;20083;-68
2022/03/10 07:41:54;;;;;;;8.57;5.60;;;;;;;;;;5024857;28;20505;-71
2022/03/10 07:44:19;;;;;;;11.10;6.47;;;;;;;;;;5021974;28;20037;-68
2022/03/10 07:46:45;;;;;;;8.93;6.32;;;;;;;;;;5024173;28;20037;-71
2022/03/10 07:49:11;;;;;;;7.25;5.88;;;;;;;;;;5022765;28;20534;-69
2022/03/10 07:51:38;;;;;;;7.70;5.55;;;;;;;;;;5024387;28;20049;-69
2022/03/10 07:54:03;;;;;;;9.57;6.25;;;;;;;;;;5023576;28;20053;-71
2022/03/10 07:56:28;;;;;;;9.15;6.07;;;;;;;;;;5022583;28;20112;-68
2022/03/10 07:58:54;;;;;;;9.25;6.13;;;;;;;;;;5024338;28;20064;-69
2022/03/10 08:01:19;;;;;;;9.48;6.10;;;;;;;;;;5024102;28;20116;-71
2022/03/10 08:03:47;;;;;;;12.95;6.25;;;;;;;;;;5022040;28;20052;-69
2022/03/10 08:06:13;;;;;;;9.43;6.30;;;;;;;;;;5023374;28;20044;-69
2022/03/10 08:08:38;;;;;;;7.10;5.50;;;;;;;;;;5023671;28;20038;-69
2022/03/10 08:11:07;;;;;;;9.40;6.30;;;;;;;;;;5024622;28;20417;-67
2022/03/10 08:13:32;;;;;;;11.50;6.45;;;;;;;;;;5022508;28;20025;-68
2022/03/10 08:15:59;;;;;;;9.18;6.07;;;;;;;;;;5023448;28;20051;-71
2022/03/10 08:18:25;;;;;;;7.25;5.65;;;;;;;;;;5023301;28;20037;-71
2022/03/10 08:20:51;;;;;;;8.90;5.90;;;;;;;;;;5022693;28;20422;-70
2022/03/10 08:23:18;;;;;;;10.35;5.93;;;;;;;;;;5021534;28;20033;-70
2022/03/10 08:25:44;;;;;;;8.68;5.90;;;;;;;;;;5023388;28;20045;-70
2022/03/10 08:28:10;;;;;;;12.48;6.22;;;;;;;;;;5023148;28;20339;-69
2022/03/10 08:30:37;;;;;;;10.20;6.75;;;;;;;;;;5024399;28;20755;-71
2022/03/10 08:33:02;;;;;;;10.20;6.50;;;;;;;;;;5024543;28;20037;-69
2022/03/10 08:35:28;;;;;;;16.10;6.40;;;;;;;;;;5025357;28;20517;-68
2022/03/10 08:37:53;;;;;;;11.43;7.90;;;;;;;;;;5025424;28;20036;-70
2022/03/10 08:40:19;;;;;;;8.93;5.43;;;;;;;;;;5021607;28;20040;-73
2022/03/10 08:42:46;;;;;;;8.63;5.47;;;;;;;;;;5024340;28;20064;-69
2022/03/10 08:45:13;;;;;;;8.15;5.72;;;;;;;;;;5024675;28;20045;-69
2022/03/10 08:47:38;;;;;;;6.72;4.95;;;;;;;;;;5024171;28;20026;-67
2022/03/10 08:50:05;;;;;;;7.28;5.63;;;;;;;;;;5023161;28;20513;-68
2022/03/10 08:52:31;;;;;;;7.10;5.07;;;;;;;;;;5023280;28;20037;-68
2022/03/10 08:54:56;;;;;;;11.13;5.20;;;;;;;;;;5021766;28;20044;-70
2022/03/10 08:57:22;;;;;;;9.85;5.38;;;;;;;;;;5022958;28;20037;-69
2022/03/10 08:59:47;;;;;;;8.00;5.55;;;;;;;;;;5023318;28;20036;-69
2022/03/10 09:02:13;;;;;;;12.23;5.93;;;;;;;;;;5022770;28;20037;-69
2022/03/10 09:04:39;;;;;;;11.25;5.70;;;;;;;;;;5022972;28;20045;-69
2022/03/10 09:07:04;;;;;;;6.95;4.80;;;;;;;;;;5020989;28;20033;-69
2022/03/10 09:09:30;;;;;;;6.85;4.78;;;;;;;;;;5022964;28;20084;-69
2022/03/10 09:11:56;;;;;;;5.85;3.70;;;;;;;;;;5022206;28;20091;-68
2022/03/10 09:14:22;;;;;;;6.97;4.47;;;;;;;;;;5023113;28;20037;-70
2022/03/10 09:16:47;;;;;;;5.38;3.90;;;;;;;;;;5017611;28;20056;-67
2022/03/10 09:19:13;;;;;;;7.28;4.35;;;;;;;;;;5021224;28;20772;-68
2022/03/10 09:22:01;;;;;;;4.57;3.80;;;;;;;;;;5021949;28;20592;-69
2022/03/10 09:24:27;;;;;;;7.18;4.15;;;;;;;;;;5021110;28;20030;-69
2022/03/10 09:26:52;;;;;;;9.32;4.70;;;;;;;;;;5019994;28;21074;-68
2022/03/10 09:29:18;;;;;;;4.90;3.72;;;;;;;;;;5020682;28;20033;-68
2022/03/10 09:31:43;;;;;;;7.63;4.55;;;;;;;;;;5021674;28;20021;-68
2022/03/10 09:34:09;;;;;;;8.73;4.75;;;;;;;;;;5020812;28;20041;-68
2022/03/10 09:36:34;;;;;;;7.65;4.97;;;;;;;;;;5019974;28;20038;-70
2022/03/10 09:39:00;;;;;;;7.88;4.85;;;;;;;;;;5020727;28;20037;-69
2022/03/10 09:41:25;;;;;;;6.90;4.97;;;;;;;;;;5021361;28;20128;-68
2022/03/10 09:43:51;;;;;;;6.85;4.80;;;;;;;;;;5021343;28;20103;-69
2022/03/10 09:46:17;;;;;;;6.80;4.75;;;;;;;;;;5020512;28;20041;-69
2022/03/10 09:48:42;;;;;;;10.35;4.80;;;;;;;;;;5020288;28;20075;-69
2022/03/10 09:51:08;;;;;;;9.40;5.07;;;;;;;;;;5020897;28;20037;-71
2022/03/10 09:53:35;;;;;;;9.43;4.47;;;;;;;;;;5022173;28;20120;-71
2022/03/10 09:56:03;;;;;;;8.35;5.20;;;;;;;;;;5020772;28;20041;-70
2022/03/10 09:58:29;;;;;;;5.90;4.75;;;;;;;;;;5021210;28;20037;-70
2022/03/10 10:01:03;;;;;;;5.72;5.00;;;;;;;;;;5021621;28;20079;-70
2022/03/10 10:03:29;;;;;;;7.28;5.13;;;;;;;;;;5021157;28;20128;-73
2022/03/10 10:05:58;;;;;;;7.93;5.70;;;;;;;;;;5021281;28;20124;-70
2022/03/10 10:08:24;;;;;;;7.63;5.15;;;;;;;;;;5019961;28;20410;-70
2022/03/10 10:10:53;;;;;;;7.25;5.28;;;;;;;;;;5020601;28;20033;-70
2022/03/10 10:13:37;;;;;;;5.90;4.85;;;;;;;;;;5021477;28;20038;-71
2022/03/10 10:16:05;;;;;;;6.95;5.10;;;;;;;;;;5021359;28;20130;-69
2022/03/10 10:18:32;;;;;;;8.73;4.90;;;;;;;;;;5019799;28;20037;-69
2022/03/10 10:20:58;;;;;;;9.52;5.10;;;;;;;;;;5020901;28;20046;-70
2022/03/10 10:23:26;;;;;;;9.98;5.22;;;;;;;;;;5021526;28;20717;-70
2022/03/10 10:25:56;;;;;;;9.20;5.10;;;;;;;;;;5020447;28;20033;-70
2022/03/10 10:28:35;;;;;;;12.07;5.82;;;;;;;;;;5020242;28;20156;-69
2022/03/10 10:31:13;;;;;;;6.13;5.05;;;;;;;;;;5019654;28;20048;-70
2022/03/10 10:34:06;;;;;;;6.05;5.22;;;;;;;;;;5020130;28;20411;-69
2022/03/10 10:36:33;;;;;;;7.00;5.25;;;;;;;;;;5020447;28;20041;-68
2022/03/10 10:39:17;;;;;;;11.68;5.57;;;;;;;;;;5020322;28;20494;-70
2022/03/10 10:41:45;;;;;;;9.70;5.43;;;;;;;;;;5020754;28;20051;-70
2022/03/10 10:44:16;;;;;;;7.97;5.40;;;;;;;;;;5020631;28;20782;-69
2022/03/10 10:46:44;;;;;;;7.60;5.05;;;;;;;;;;5020927;28;20068;-70
2022/03/10 10:49:15;;;;;;;7.18;5.40;;;;;;;;;;5020767;28;20045;-70
2022/03/10 10:51:48;;;;;;;8.40;5.28;;;;;;;;;;5020807;28;20046;-68
2022/03/10 10:54:23;;;;;;;6.75;4.93;;;;;;;;;;5020301;28;20049;-70
2022/03/10 10:56:55;;;;;;;9.40;5.47;;;;;;;;;;5020828;28;20413;-69
2022/03/10 10:59:39;;;;;;;7.03;5.35;;;;;;;;;;5020386;28;20038;-68
2022/03/10 11:02:07;;;;;;;8.88;4.95;;;;;;;;;;5019417;28;20048;-67
2022/03/10 11:04:34;;;;;;;7.97;5.03;;;;;;;;;;5019044;28;20498;-72
2022/03/10 11:07:00;;;;;;;7.28;4.78;;;;;;;;;;5020661;28;20083;-70
2022/03/10 11:09:25;;;;;;;6.25;4.25;;;;;;;;;;5019478;28;20045;-69
2022/03/10 11:11:52;;;;;;;7.43;4.70;;;;;;;;;;5020579;28;20037;-70
2022/03/10 11:14:18;;;;;;;7.65;4.93;;;;;;;;;;5019586;28;20467;-71
2022/03/10 11:16:45;;;;;;;12.90;4.72;;;;;;;;;;5020750;28;20621;-69
2022/03/10 11:19:13;;;;;;;8.05;4.50;;;;;;;;;;5020864;28;20095;-68
2022/03/10 11:22:06;;;;;;;9.65;4.50;;;;;;;;;;5020874;28;20103;-71
2022/03/10 11:24:48;;;;;;;11.68;4.63;;;;;;;;;;5023520;28;21106;-73
2022/03/10 11:27:37;;;;;;;5.72;4.43;;;;;;;;;;5021187;28;20038;-71
2022/03/10 11:30:04;;;;;;;8.95;4.05;;;;;;;;;;5022011;28;20907;-73
2022/03/10 11:32:31;;;;;;;7.70;4.32;;;;;;;;;;5023771;28;20037;-70
2022/03/10 11:35:00;;;;;;;8.20;4.10;;;;;;;;;;5023136;28;20037;-71
2022/03/10 11:41:14;;;;;;;5.68;4.32;;;;;;;;;;5024939;28;20151;-73
2022/03/10 11:43:40;;;;;;;6.40;4.40;;;;;;;;;;5023869;28;20030;-70
2022/03/10 11:46:19;;;;;;;6.05;4.63;;;;;;;;;;5022010;28;20049;-72
2022/03/10 11:48:59;;;;;;;7.60;4.90;;;;;;;;;;5023681;28;20034;-72
2022/03/10 11:51:42;;;;;;;8.48;4.50;;;;;;;;;;5022426;28;20534;-70
2022/03/10 11:54:08;;;;;;;6.50;4.03;;;;;;;;;;5022437;28;20037;-72
2022/03/10 11:56:43;;;;;;;10.93;5.07;;;;;;;;;;5023153;28;20068;-70
2022/03/10 11:59:21;;;;;;;6.63;4.57;;;;;;;;;;5023230;28;20548;-71
2022/03/10 12:01:47;;;;;;;5.15;4.30;;;;;;;;;;5023654;28;20029;-70
2022/03/10 12:04:17;;;;;;;6.68;4.55;;;;;;;;;;5023725;28;20290;-73
2022/03/10 12:06:57;;;;;;;6.47;5.18;;;;;;;;;;5023227;28;20525;-70
2022/03/10 12:09:29;;;;;;;9.68;5.30;;;;;;;;;;5022320;28;20525;-71
2022/03/10 12:12:12;;;;;;;7.18;5.68;;;;;;;;;;5023322;28;20227;-70
2022/03/10 12:14:37;;;;;;;8.52;5.82;;;;;;;;;;5022462;28;20056;-71
2022/03/10 12:17:03;;;;;;;6.35;5.30;;;;;;;;;;5022188;28;20394;-72
2022/03/10 12:20:26;;;;;;;7.43;5.50;;;;;;;;;;5021477;28;20821;-70
2022/03/10 12:23:03;;;;;;;9.75;5.13;;;;;;;;;;4981293;28;20034;-72
2022/03/10 12:25:48;;;;;;;6.60;4.70;;;;;;;;;;4981681;28;20048;-70
2022/03/10 12:28:24;;;;;;;8.85;5.18;;;;;;;;;;5001807;28;20056;-70
2022/03/10 12:30:59;;;;;;;7.32;4.50;;;;;;;;;;5021572;28;20048;-73
2022/03/10 12:33:25;;;;;;;8.38;5.13;;;;;;;;;;5022282;28;20040;-72
2022/03/10 12:35:54;;;;;;;8.65;4.88;;;;;;;;;;5022364;28;20029;-72
2022/03/10 12:38:34;;;;;;;9.38;4.93;;;;;;;;;;5022700;28;20021;-72
2022/03/10 12:40:59;;;;;;;12.35;5.53;;;;;;;;;;5021686;28;20406;-71
2022/03/10 12:43:28;;;;;;;8.30;5.80;;;;;;;;;;5022656;28;20052;-72
2022/03/10 12:45:55;;;;;;;13.30;5.00;;;;;;;;;;5022041;28;20045;-70
2022/03/10 12:48:57;;;;;;;15.20;6.03;;;;;;;;;;5022300;28;20042;-69
2022/03/10 12:51:30;;;;;;;13.48;6.00;;;;;;;;;;5021239;28;20590;-70
2022/03/10 12:53:56;;;;;;;11.82;5.50;;;;;;;;;;5022110;28;20128;-70
2022/03/10 12:56:22;;;;;;;10.95;5.82;;;;;;;;;;5021730;28;20042;-70
2022/03/10 12:58:50;;;;;;;5.55;4.00;;;;;;;;;;5021119;28;20179;-71
2022/03/10 13:01:16;;;;;;;7.65;4.80;;;;;;;;;;5021827;28;20596;-72
2022/03/10 13:03:49;;;;;;;9.10;4.68;;;;;;;;;;5021909;28;20030;-72
2022/03/10 13:06:18;;;;;;;10.57;4.70;;;;;;;;;;5021312;28;20033;-72
2022/03/10 13:08:53;;;;;;;10.68;5.72;;;;;;;;;;5022038;28;20095;-70
2022/03/10 13:11:30;;;;;;;9.13;5.32;;;;;;;;;;5020069;28;20733;-71
2022/03/10 13:14:13;;;;;;;11.23;5.88;;;;;;;;;;5019371;28;20052;-70
2022/03/10 13:16:45;;;;;;;9.23;5.10;;;;;;;;;;5020165;28;20401;-71
2022/03/10 13:19:25;;;;;;;8.33;5.00;;;;;;;;;;5020307;28;20120;-71
2022/03/10 13:21:56;;;;;;;7.72;4.55;;;;;;;;;;5020406;28;20037;-70
2022/03/10 13:24:35;;;;;;;8.67;5.37;;;;;;;;;;5021168;28;20114;-73
2022/03/10 13:27:01;;;;;;;6.43;4.43;;;;;;;;;;5021238;28;20045;-71
2022/03/10 13:29:27;;;;;;;11.15;4.70;;;;;;;;;;5021507;28;20045;-72
2022/03/10 13:31:53;;;;;;;8.73;4.25;;;;;;;;;;5020714;28;20037;-74
2022/03/10 13:34:19;;;;;;;8.30;3.92;;;;;;;;;;5022365;28;20124;-71
2022/03/10 13:36:46;;;;;;;5.82;4.65;;;;;;;;;;5021116;28;20062;-72
2022/03/10 13:39:12;;;;;;;7.75;4.97;;;;;;;;;;5021043;28;20116;-71
2022/03/10 13:41:37;;;;;;;11.13;4.65;;;;;;;;;;5021188;28;20457;-71
2022/03/10 13:44:14;;;;;;;10.68;5.90;;;;;;;;;;5020494;28;20484;-72
2022/03/10 13:46:39;;;;;;;8.07;4.80;;;;;;;;;;5018740;28;20033;-71
2022/03/10 13:49:18;;;;;;;12.65;4.63;;;;;;;;;;5020414;28;20039;-75
2022/03/10 13:51:46;;;;;;;7.22;4.45;;;;;;;;;;5020802;28;20110;-70
2022/03/10 13:54:11;;;;;;;6.10;4.43;;;;;;;;;;5020775;28;20047;-70
2022/03/10 13:56:41;;;;;;;9.07;4.05;;;;;;;;;;5020880;28;20049;-71
2022/03/10 13:59:09;;;;;;;4.18;3.45;;;;;;;;;;5017821;28;20371;-71
2022/03/10 14:01:39;;;;;;;5.72;3.28;;;;;;;;;;5020588;28;20509;-70
2022/03/10 14:04:19;;;;;;;6.20;3.85;;;;;;;;;;5019174;28;20046;-69
2022/03/10 14:06:49;;;;;;;6.90;4.38;;;;;;;;;;5019183;28;20037;-74
2022/03/10 14:09:23;;;;;;;8.27;3.58;;;;;;;;;;5018965;28;20033;-70
2022/03/10 14:11:50;;;;;;;7.90;4.38;;;;;;;;;;5020870;28;20029;-69
2022/03/10 14:14:30;;;;;;;5.50;4.00;;;;;;;;;;5020730;28;20048;-75
2022/03/10 14:16:55;;;;;;;7.57;4.60;;;;;;;;;;5020862;28;20033;-74
2022/03/10 14:19:33;;;;;;;6.38;3.95;;;;;;;;;;5020742;28;20547;-68
2022/03/10 14:22:00;;;;;;;9.55;4.68;;;;;;;;;;5020882;28;20040;-74
2022/03/10 14:24:35;;;;;;;7.57;4.47;;;;;;;;;;5020083;28;20486;-73
2022/03/10 14:27:09;;;;;;;9.75;4.00;;;;;;;;;;5020762;28;20041;-70
2022/03/10 14:29:39;;;;;;;7.13;4.10;;;;;;;;;;5020252;28;20025;-70
2022/03/10 14:32:05;;;;;;;8.50;4.20;;;;;;;;;;5015761;28;20064;-69
2022/03/10 14:34:32;;;;;;;8.50;4.10;;;;;;;;;;5019691;28;20613;-72
2022/03/10 14:36:57;;;;;;;5.85;3.88;;;;;;;;;;5020884;28;20029;-69
2022/03/10 14:39:23;;;;;;;7.95;4.53;;;;;;;;;;5021175;28;20071;-73
2022/03/10 14:41:50;;;;;;;9.07;4.45;;;;;;;;;;5019370;28;20128;-69
2022/03/10 14:44:15;;;;;;;6.47;4.15;;;;;;;;;;5019728;28;20119;-69
2022/03/10 14:46:41;;;;;;;6.10;4.57;;;;;;;;;;5020326;28;20453;-68
2022/03/10 14:49:07;;;;;;;6.82;4.53;;;;;;;;;;5020541;28;20191;-68
2022/03/10 14:51:36;;;;;;;7.82;4.63;;;;;;;;;;5020188;28;20048;-70